createdAt,value
2022-12-27T00:00:06.939Z,4.88
2022-12-27T00:03:08.599Z,4.69
2022-12-27T00:06:12.213Z,4.51
2022-12-27T00:09:13.763Z,4.46
2022-12-27T00:12:15.301Z,4.36
2022-12-27T00:15:16.929Z,4.28
2022-12-27T00:18:19.092Z,4.15
2022-12-27T00:21:20.978Z,4.03
2022-12-27T00:24:22.497Z,3.94
2022-12-27T00:27:24.058Z,3.82
2022-12-27T00:30:25.573Z,3.75
2022-12-27T00:33:27.737Z,3.69
2022-12-27T00:36:30.164Z,3.63
2022-12-27T00:39:31.676Z,3.57
2022-12-27T00:42:33.268Z,3.43
2022-12-27T00:45:34.879Z,3.39
2022-12-27T00:48:36.594Z,3.37
2022-12-27T00:51:38.157Z,3.31
2022-12-27T00:54:39.763Z,3.22
2022-12-27T00:57:41.395Z,3.12
2022-12-27T01:00:43.041Z,3.06
2022-12-27T01:03:44.836Z,2.95
2022-12-27T01:06:46.452Z,2.78
2022-12-27T01:09:47.982Z,2.64
2022-12-27T01:12:49.598Z,2.64
2022-12-27T01:15:51.114Z,2.50
2022-12-27T01:18:52.746Z,2.46
2022-12-27T01:21:54.271Z,2.40
2022-12-27T01:24:55.767Z,2.39
2022-12-27T01:27:57.291Z,2.35
2022-12-27T01:30:58.835Z,2.28
2022-12-27T01:34:00.505Z,2.26
2022-12-27T01:37:02.099Z,2.25
2022-12-27T01:40:03.934Z,2.08
2022-12-27T01:43:05.480Z,2.06
2022-12-27T01:46:07.063Z,2.10
2022-12-27T01:49:08.793Z,2.03
2022-12-27T01:52:10.336Z,2.00
2022-12-27T01:55:17.792Z,1.87
2022-12-27T01:58:27.240Z,1.74
2022-12-27T02:01:31.295Z,1.66
2022-12-27T02:04:32.929Z,1.60
2022-12-27T02:08:04.909Z,1.50
2022-12-27T02:11:07.107Z,1.39
2022-12-27T02:14:08.933Z,1.33
2022-12-27T02:17:18.970Z,1.27
2022-12-27T02:20:22.818Z,1.17
2022-12-27T02:23:42.918Z,1.20
2022-12-27T02:26:53.150Z,1.18
2022-12-27T02:30:14.849Z,1.18
2022-12-27T02:33:19.533Z,1.04
2022-12-27T02:36:25.141Z,1.00
2022-12-27T02:39:26.669Z,0.88
2022-12-27T02:42:46.666Z,0.78
2022-12-27T02:46:38.525Z,0.68
2022-12-27T02:50:00.221Z,0.61
2022-12-27T02:53:10.689Z,0.50
2022-12-27T02:56:41.980Z,0.41
2022-12-27T03:00:11.275Z,0.35
2022-12-27T03:03:30.664Z,0.40
2022-12-27T03:06:52.775Z,0.25
2022-12-27T03:10:21.649Z,0.18
2022-12-27T03:14:00.669Z,0.10
2022-12-27T03:17:05.706Z,0.03
2022-12-27T03:20:28.437Z,-0.03
2022-12-27T03:23:48.713Z,-0.04
2022-12-27T03:26:50.325Z,-0.10
2022-12-27T03:30:10.935Z,-0.09
2022-12-27T03:33:15.293Z,-0.02
2022-12-27T03:36:38.319Z,-0.02
2022-12-27T03:39:40.632Z,-0.02
2022-12-27T03:43:08.314Z,0.01
2022-12-27T03:46:33.841Z,-0.08
2022-12-27T03:49:41.185Z,-0.27
2022-12-27T03:52:49.100Z,-0.34
2022-12-27T03:55:50.663Z,-0.33
2022-12-27T03:58:52.192Z,-0.40
2022-12-27T04:01:53.848Z,-0.35
2022-12-27T04:04:55.481Z,-0.38
2022-12-27T04:08:15.556Z,-0.36
2022-12-27T04:11:35.664Z,-0.48
2022-12-27T04:14:55.762Z,-0.58
2022-12-27T04:18:15.940Z,-0.64
2022-12-27T04:21:36.239Z,-0.69
2022-12-27T04:24:56.361Z,-0.70
2022-12-27T04:28:16.371Z,-0.69
2022-12-27T04:31:36.625Z,-0.71
2022-12-27T04:34:44.045Z,-0.76
2022-12-27T04:37:45.650Z,-0.82
2022-12-27T04:41:05.783Z,-0.84
2022-12-27T04:44:25.882Z,-0.88
2022-12-27T04:47:47.700Z,-0.88
2022-12-27T04:51:07.816Z,-0.89
2022-12-27T04:54:39.080Z,-0.92
2022-12-27T04:57:40.638Z,-0.83
2022-12-27T05:01:00.722Z,-0.77
2022-12-27T05:04:02.258Z,-0.80
2022-12-27T05:07:26.615Z,-0.91
2022-12-27T05:10:46.808Z,-1.02
2022-12-27T05:14:00.369Z,-1.11
2022-12-27T05:17:01.922Z,-1.11
2022-12-27T05:20:04.007Z,-1.15
2022-12-27T05:23:24.070Z,-1.18
2022-12-27T05:26:27.168Z,-1.17
2022-12-27T05:29:30.783Z,-1.16
2022-12-27T05:32:32.354Z,-1.18
2022-12-27T05:35:34.540Z,-1.09
2022-12-27T05:38:36.159Z,-1.12
2022-12-27T05:41:37.685Z,-1.21
2022-12-27T05:44:39.198Z,-1.20
2022-12-27T05:47:41.169Z,-1.22
2022-12-27T05:50:42.723Z,-1.30
2022-12-27T05:53:44.294Z,-1.33
2022-12-27T05:56:45.822Z,-1.40
2022-12-27T05:59:47.328Z,-1.45
2022-12-27T06:02:48.924Z,-1.50
2022-12-27T06:05:50.542Z,-1.48
2022-12-27T06:08:52.114Z,-1.46
2022-12-27T06:11:53.643Z,-1.44
2022-12-27T06:14:55.268Z,-1.43
2022-12-27T06:17:56.967Z,-1.46
2022-12-27T06:21:19.403Z,-1.54
2022-12-27T06:24:20.984Z,-1.63
2022-12-27T06:27:22.639Z,-1.62
2022-12-27T06:30:24.244Z,-1.62
2022-12-27T06:33:26.038Z,-1.62
2022-12-27T06:36:29.651Z,-1.62
2022-12-27T06:39:31.274Z,-1.65
2022-12-27T06:42:32.928Z,-1.66
2022-12-27T06:45:34.593Z,-1.71
2022-12-27T06:48:36.395Z,-1.73
2022-12-27T06:51:38.044Z,-1.77
2022-12-27T06:54:41.462Z,-1.75
2022-12-27T06:57:43.111Z,-1.75
2022-12-27T07:00:44.787Z,-1.68
2022-12-27T07:03:56.921Z,-1.71
2022-12-27T07:06:58.647Z,-1.72
2022-12-27T07:10:00.301Z,-1.74
2022-12-27T07:13:01.953Z,-1.77
2022-12-27T07:16:07.921Z,-1.71
2022-12-27T07:19:09.826Z,-1.58
2022-12-27T07:22:11.491Z,-1.58
2022-12-27T07:25:13.173Z,-1.68
2022-12-27T07:28:15.104Z,-1.68
2022-12-27T07:31:18.496Z,-1.74
2022-12-27T07:34:22.021Z,-1.70
2022-12-27T07:37:24.016Z,-1.66
2022-12-27T07:40:25.877Z,-1.69
2022-12-27T07:43:30.326Z,-1.66
2022-12-27T07:46:32.918Z,-1.64
2022-12-27T07:49:34.515Z,-1.60
2022-12-27T07:52:36.114Z,-1.77
2022-12-27T07:55:37.643Z,-1.68
2022-12-27T07:58:39.975Z,-1.69
2022-12-27T08:02:00.005Z,-1.63
2022-12-27T08:05:01.652Z,-1.51
2022-12-27T08:08:03.439Z,-1.52
2022-12-27T08:11:05.817Z,-1.51
2022-12-27T08:14:07.664Z,-1.47
2022-12-27T08:17:20.731Z,-1.40
2022-12-27T08:20:22.289Z,-1.38
2022-12-27T08:23:23.836Z,-1.33
2022-12-27T08:26:25.417Z,-1.46
2022-12-27T08:29:26.993Z,-1.44
2022-12-27T08:32:28.536Z,-1.37
2022-12-27T08:38:54.234Z,-1.22
2022-12-27T08:41:55.816Z,-1.12
2022-12-27T08:44:57.337Z,-0.97
2022-12-27T08:47:59.751Z,-0.85
2022-12-27T08:51:11.924Z,-0.79
2022-12-27T08:54:14.619Z,-0.74
2022-12-27T08:57:16.190Z,-0.64
2022-12-27T09:00:17.775Z,-0.49
2022-12-27T09:03:20.302Z,-0.35
2022-12-27T09:06:23.192Z,-0.24
2022-12-27T09:09:24.719Z,-0.05
2022-12-27T09:12:26.347Z,0.28
2022-12-27T09:15:27.949Z,1.30
2022-12-27T09:18:29.593Z,0.80
2022-12-27T09:21:31.977Z,0.76
2022-12-27T09:24:33.578Z,0.58
2022-12-27T09:27:36.984Z,0.68
2022-12-27T09:30:38.799Z,0.77
2022-12-27T09:33:40.589Z,0.78
2022-12-27T09:36:42.237Z,0.89
2022-12-27T09:39:43.803Z,1.07
2022-12-27T09:43:15.429Z,1.30
2022-12-27T09:46:25.844Z,2.15
2022-12-27T09:49:31.096Z,2.30
2022-12-27T09:52:37.325Z,2.20
2022-12-27T09:55:49.979Z,1.93
2022-12-27T09:59:15.939Z,1.64
2022-12-27T10:02:22.323Z,1.53
2022-12-27T10:05:24.851Z,1.40
2022-12-27T10:08:47.078Z,1.84
2022-12-27T10:12:00.616Z,1.70
2022-12-27T10:15:46.911Z,1.82
2022-12-27T10:19:10.331Z,1.81
2022-12-27T10:22:34.886Z,1.51
2022-12-27T10:25:36.434Z,2.03
2022-12-27T10:28:59.341Z,3.00
2022-12-27T10:32:00.853Z,3.28
2022-12-27T10:35:02.526Z,3.47
2022-12-27T10:38:09.741Z,3.30
2022-12-27T10:41:32.192Z,3.16
2022-12-27T10:44:34.408Z,3.58
2022-12-27T10:47:36.242Z,4.48
2022-12-27T10:50:38.890Z,4.22
2022-12-27T10:53:52.624Z,3.71
2022-12-27T10:56:55.075Z,4.44
2022-12-27T11:00:20.693Z,4.98
2022-12-27T11:03:25.027Z,5.07
2022-12-27T11:06:26.856Z,5.21
2022-12-27T11:09:29.527Z,4.67
2022-12-27T11:12:32.969Z,4.69
2022-12-27T11:15:39.083Z,4.44
2022-12-27T11:18:46.483Z,4.15
2022-12-27T11:21:48.489Z,4.26
2022-12-27T11:24:50.584Z,4.19
2022-12-27T11:27:54.705Z,4.20
2022-12-27T11:30:57.596Z,4.14
2022-12-27T11:34:01.478Z,4.05
2022-12-27T11:37:10.834Z,4.39
2022-12-27T11:40:34.775Z,4.27
2022-12-27T11:43:44.456Z,4.24
2022-12-27T11:46:59.083Z,4.09
2022-12-27T11:50:06.998Z,4.14
2022-12-27T11:53:36.579Z,3.95
2022-12-27T11:56:46.114Z,4.11
2022-12-27T12:00:08.956Z,4.24
2022-12-27T12:03:16.546Z,4.34
2022-12-27T12:06:20.720Z,4.35
2022-12-27T12:09:52.771Z,3.97
2022-12-27T12:13:02.585Z,4.12
2022-12-27T12:16:45.222Z,4.23
2022-12-27T12:20:09.660Z,4.31
2022-12-27T12:23:12.938Z,4.37
2022-12-27T12:26:21.407Z,4.37
2022-12-27T12:29:47.815Z,4.52
2022-12-27T12:32:59.451Z,4.65
2022-12-27T12:36:20.524Z,4.73
2022-12-27T12:39:48.544Z,4.73
2022-12-27T12:43:01.684Z,4.62
2022-12-27T12:46:13.520Z,4.52
2022-12-27T12:49:53.641Z,4.45
2022-12-27T12:53:22.683Z,4.42
2022-12-27T12:56:53.066Z,4.46
2022-12-27T13:00:12.866Z,4.58
2022-12-27T13:03:26.546Z,4.53
2022-12-27T13:06:31.203Z,4.57
2022-12-27T13:09:45.338Z,4.55
2022-12-27T13:12:59.279Z,4.57
2022-12-27T13:16:16.484Z,4.61
2022-12-27T13:19:36.809Z,4.62
2022-12-27T13:22:54.447Z,4.53
2022-12-27T13:26:25.008Z,4.46
2022-12-27T13:29:53.235Z,4.46
2022-12-27T13:33:26.651Z,4.39
2022-12-27T13:36:52.667Z,4.33
2022-12-27T13:40:18.327Z,4.21
2022-12-27T13:43:38.177Z,4.15
2022-12-27T13:47:07.840Z,4.05
2022-12-27T13:50:42.703Z,4.03
2022-12-27T13:54:02.903Z,3.98
2022-12-27T13:57:22.832Z,4.02
2022-12-27T14:00:24.849Z,3.98
2022-12-27T14:04:05.559Z,3.99
2022-12-27T14:07:26.034Z,3.92
2022-12-27T14:11:01.143Z,3.93
2022-12-27T14:14:03.131Z,3.94
2022-12-27T14:17:42.327Z,3.91
2022-12-27T14:21:02.752Z,3.90
2022-12-27T14:24:30.986Z,3.91
2022-12-27T14:28:10.929Z,3.90
2022-12-27T14:31:31.372Z,3.87
2022-12-27T14:34:59.684Z,3.88
2022-12-27T14:38:36.476Z,3.87
2022-12-27T14:41:47.173Z,3.81
2022-12-27T14:45:22.825Z,3.82
2022-12-27T14:48:42.578Z,3.80
2022-12-27T14:52:12.171Z,3.77
2022-12-27T14:55:35.118Z,3.79
2022-12-27T14:58:41.074Z,3.74
2022-12-27T15:01:58.896Z,3.71
2022-12-27T15:05:23.109Z,3.63
2022-12-27T15:08:51.116Z,3.58
2022-12-27T15:11:58.678Z,3.49
2022-12-27T15:15:07.676Z,3.42
2022-12-27T15:18:26.211Z,3.36
2022-12-27T15:21:41.928Z,3.30
2022-12-27T15:25:02.308Z,3.24
2022-12-27T15:28:18.799Z,3.16
2022-12-27T15:31:43.392Z,3.10
2022-12-27T15:34:44.898Z,3.00
2022-12-27T15:38:15.572Z,2.86
2022-12-27T15:41:24.254Z,2.74
2022-12-27T15:44:39.240Z,2.68
2022-12-27T15:47:53.468Z,2.60
2022-12-27T15:51:19.800Z,2.48
2022-12-27T15:54:57.934Z,2.35
2022-12-27T15:58:18.876Z,2.24
2022-12-27T16:01:29.963Z,2.12
2022-12-27T16:05:01.253Z,2.00
2022-12-27T16:08:02.739Z,1.93
2022-12-27T16:11:06.809Z,1.83
2022-12-27T16:14:27.023Z,1.74
2022-12-27T16:17:57.815Z,1.67
2022-12-27T16:21:22.463Z,1.60
2022-12-27T16:24:25.003Z,1.55
2022-12-27T16:27:31.640Z,1.50
2022-12-27T16:30:43.138Z,1.49
2022-12-27T16:33:44.828Z,1.43
2022-12-27T16:36:47.129Z,1.38
2022-12-27T16:40:10.295Z,1.36
2022-12-27T16:43:20.906Z,1.32
2022-12-27T16:46:50.061Z,1.25
2022-12-27T16:49:57.947Z,1.18
2022-12-27T16:53:05.347Z,1.15
2022-12-27T16:56:19.294Z,1.13
2022-12-27T17:00:09.032Z,1.11
2022-12-27T17:03:35.463Z,0.99
2022-12-27T17:06:37.080Z,0.93
2022-12-27T17:09:39.526Z,0.85
2022-12-27T17:12:41.136Z,0.74
2022-12-27T17:16:08.437Z,0.69
2022-12-27T17:19:23.634Z,0.61
2022-12-27T17:22:30.424Z,0.53
2022-12-27T17:25:43.472Z,0.44
2022-12-27T17:28:54.618Z,0.40
2022-12-27T17:32:08.225Z,0.40
2022-12-27T17:35:12.830Z,0.39
2022-12-27T17:38:42.096Z,0.47
2022-12-27T17:42:02.207Z,0.44
2022-12-27T17:45:18.930Z,0.28
2022-12-27T17:48:28.844Z,0.18
2022-12-27T17:51:30.650Z,0.08
2022-12-27T17:54:50.959Z,0.07
2022-12-27T17:57:54.895Z,0.03
2022-12-27T18:00:57.996Z,-0.03
2022-12-27T18:03:59.667Z,-0.07
2022-12-27T18:07:05.884Z,-0.05
2022-12-27T18:10:13.456Z,-0.09
2022-12-27T18:13:19.786Z,-0.16
2022-12-27T18:16:24.007Z,-0.20
2022-12-27T18:19:29.745Z,-0.17
2022-12-27T18:22:31.361Z,-0.20
2022-12-27T18:25:37.539Z,-0.23
2022-12-27T18:28:39.261Z,-0.19
2022-12-27T18:31:44.650Z,-0.26
2022-12-27T18:34:57.675Z,-0.30
2022-12-27T18:37:59.294Z,-0.38
2022-12-27T18:41:06.676Z,-0.49
2022-12-27T18:44:13.341Z,-0.49
2022-12-27T18:47:25.242Z,-0.60
2022-12-27T18:50:30.945Z,-0.64
2022-12-27T18:53:37.828Z,-0.70
2022-12-27T18:56:39.433Z,-0.67
2022-12-27T18:59:41.075Z,-0.55
2022-12-27T19:02:42.865Z,-0.57
2022-12-27T19:06:04.015Z,-0.58
2022-12-27T19:09:06.204Z,-0.62
2022-12-27T19:12:19.300Z,-0.63
2022-12-27T19:15:29.643Z,-0.62
2022-12-27T19:18:34.004Z,-0.66
2022-12-27T19:21:38.056Z,-0.77
2022-12-27T19:24:39.644Z,-0.82
2022-12-27T19:27:41.297Z,-0.78
2022-12-27T19:30:43.839Z,-0.80
2022-12-27T19:33:50.670Z,-0.83
2022-12-27T19:36:52.293Z,-0.88
2022-12-27T19:39:53.934Z,-0.91
2022-12-27T19:42:55.608Z,-0.87
2022-12-27T19:45:57.219Z,-0.95
2022-12-27T19:52:22.077Z,-1.03
2022-12-27T19:55:25.219Z,-1.09
2022-12-27T19:58:27.447Z,-1.14
2022-12-27T20:01:29.222Z,-1.19
2022-12-27T20:04:30.987Z,-1.20
2022-12-27T20:07:32.672Z,-1.21
2022-12-27T20:10:34.241Z,-1.17
2022-12-27T20:13:35.883Z,-1.21
2022-12-27T20:16:37.576Z,-1.22
2022-12-27T20:19:39.227Z,-1.22
2022-12-27T20:22:40.897Z,-1.17
2022-12-27T20:25:44.837Z,-1.25
2022-12-27T20:28:46.633Z,-1.30
2022-12-27T20:31:50.165Z,-1.34
2022-12-27T20:34:52.200Z,-1.37
2022-12-27T20:37:53.870Z,-1.39
2022-12-27T20:40:55.482Z,-1.35
2022-12-27T20:43:57.926Z,-1.30
2022-12-27T20:46:59.566Z,-1.32
2022-12-27T20:50:01.134Z,-1.30
2022-12-27T20:53:02.805Z,-1.31
2022-12-27T20:56:05.153Z,-1.37
2022-12-27T20:59:07.206Z,-1.40
2022-12-27T21:02:13.672Z,-1.34
2022-12-27T21:05:16.395Z,-1.38
2022-12-27T21:08:18.016Z,-1.38
2022-12-27T21:11:21.156Z,-1.41
2022-12-27T21:14:22.776Z,-1.31
2022-12-27T21:17:24.375Z,-1.28
2022-12-27T21:20:25.986Z,-1.31
2022-12-27T21:23:27.737Z,-1.34
2022-12-27T21:26:31.037Z,-1.29
2022-12-27T21:29:32.597Z,-1.27
2022-12-27T21:32:34.211Z,-1.30
2022-12-27T21:35:35.781Z,-1.35
2022-12-27T21:38:37.405Z,-1.31
2022-12-27T21:41:40.028Z,-1.33
2022-12-27T21:44:41.539Z,-1.30
2022-12-27T21:47:43.066Z,-1.42
2022-12-27T21:50:45.413Z,-1.46
2022-12-27T21:53:46.969Z,-1.49
2022-12-27T21:56:48.629Z,-1.54
2022-12-27T21:59:50.415Z,-1.55
2022-12-27T22:02:52.105Z,-1.46
2022-12-27T22:05:53.730Z,-1.49
2022-12-27T22:08:57.388Z,-1.55
2022-12-27T22:11:58.944Z,-1.55
2022-12-27T22:15:00.540Z,-1.52
2022-12-27T22:18:02.123Z,-1.49
2022-12-27T22:21:05.114Z,-1.52
2022-12-27T22:24:06.886Z,-1.54
2022-12-27T22:27:08.428Z,-1.47
2022-12-27T22:30:10.456Z,-1.48
2022-12-27T22:33:12.036Z,-1.53
2022-12-27T22:36:15.611Z,-1.48
2022-12-27T22:39:17.152Z,-1.46
2022-12-27T22:42:18.700Z,-1.47
2022-12-27T22:45:20.226Z,-1.35
2022-12-27T22:48:21.739Z,-1.37
2022-12-27T22:51:33.079Z,-1.43
2022-12-27T22:55:03.340Z,-1.53
2022-12-27T22:57:56.445Z,-1.57
2022-12-27T23:00:58.448Z,-1.57
2022-12-27T23:04:01.093Z,-1.58
2022-12-27T23:07:02.503Z,-1.49
2022-12-27T23:10:04.197Z,-1.47
2022-12-27T23:13:05.716Z,-1.53
2022-12-27T23:16:07.790Z,-1.51
2022-12-27T23:19:09.723Z,-1.60
2022-12-27T23:22:11.253Z,-1.56
2022-12-27T23:25:12.774Z,-1.56
2022-12-27T23:28:14.315Z,-1.68
2022-12-27T23:31:16.028Z,-1.53
2022-12-27T23:34:21.236Z,-1.58
2022-12-27T23:37:25.610Z,-1.62
2022-12-27T23:40:27.128Z,-1.53
2022-12-27T23:43:51.716Z,-1.54
2022-12-27T23:46:54.144Z,-1.51
2022-12-27T23:49:55.690Z,-1.49
2022-12-27T23:52:57.232Z,-1.49
2022-12-27T23:55:59.519Z,-1.47
2022-12-27T23:59:01.541Z,-1.45
